This is the latest recevied weather packets stored in our database for station/object SR6WVX. If no packets are shown the sender has not sent any weather packets the latest 1 day(s).
| Time | Temp. | Humidity | Pressure | Rain* | Wind** | Luminosity | Snow |
|---|---|---|---|---|---|---|---|
| 1778097240 | 13.89° C | 87% | 1001.3 hPa | 1.02 mm | - | - | - |
| 1778096940 | 13.89° C | 87% | 1001.3 hPa | 1.02 mm | - | - | - |
| 1778095138 | 13.89° C | 86% | 1001.4 hPa | 1.02 mm | - | - | - |
| 1778094838 | 13.89° C | 86% | 1001.6 hPa | 1.02 mm | - | - | - |
| 1778093637 | 14.44° C | 83% | 1001.1 hPa | 0.51 mm | - | - | - |
| 1778093337 | 14.44° C | 83% | 1001.1 hPa | 0.51 mm | - | - | - |
| 1778092436 | 14.44° C | 82% | 1000.9 hPa | 0 mm | - | - | - |
| 1778091835 | 14.44° C | 82% | 1000.7 hPa | 0 mm | - | - | - |
| 1778091535 | 14.44° C | 82% | 1000.4 hPa | 0 mm | - | - | - |
| 1778090634 | 14.44° C | 79% | 999.9 hPa | 0 mm | - | - | - |
| 1778089133 | 15.56° C | 73% | 999.7 hPa | 0 mm | - | - | - |
| 1778088232 | 18.89° C | 59% | 999.2 hPa | 0 mm | - | - | - |
| 1778087932 | 20.56° C | 53% | 999.5 hPa | 0 mm | - | - | - |
| 1778087031 | 22.22° C | 46% | 999.1 hPa | 0 mm | - | - | - |
| 1778086130 | 23.33° C | 43% | 999 hPa | 0 mm | - | - | - |
| 1778084629 | 27.22° C | 36% | 999.3 hPa | 0 mm | - | - | - |
| 1778083428 | 28.33° C | 33% | 999.3 hPa | 0 mm | - | - | - |
| 1778082227 | 30.56° C | 32% | 999.2 hPa | 0 mm | - | - | - |
| 1778081326 | 27.22° C | 35% | 999.3 hPa | 0 mm | - | - | - |
| 1778080125 | 28.33° C | 34% | 999.4 hPa | 0 mm | - | - | - |
| 1778079224 | 27.78° C | 35% | 999.4 hPa | 0 mm | - | - | - |
| 1778078924 | 27.78° C | 35% | 999.6 hPa | 0 mm | - | - | - |
| 1778078023 | 27.22° C | 35% | 999.5 hPa | 0 mm | - | - | - |
| 1778077723 | 27.22° C | 35% | 999.5 hPa | 0 mm | - | - | - |
| 1778076822 | 27.22° C | 36% | 999.8 hPa | 0 mm | - | - | - |
* Rain latest hour (hover to see other rain measurements)
** Current wind speed in m/s (hover to see current wind gust speed)